Vermontville, New York
Current Conditions -  °F | °C
As of 1:51 AM on Monday 24 Nov 2014 (Local Time) from KSLK Reporting Station
Clear Clear  
Wind Chill: 43°   Ceiling: Unl
Heat Index: 48°   Visibility: 10mi
Dew Point: 37°   Wind: 10mph
Humidity: 66%   Direction: 180°S
Pressure: 29.78"   Gusts: NA
Location:  44.45°N, 74.07°W
Report Text: KSLK 240651Z AUTO 18009KT 10SM CLR 09/03 A2978 RMK AO2 SLP089 T00890028
Loading
Personal Weather Stations






























Interactive Weather Map New forecast layout! Learn more

10-Day Weather Forecast

Advertisements
Track Severe Weather on mobile